This is the latest recevied weather packets stored in our database for station/object EA1GGY-1. If no packets are shown the sender has not sent any weather packets the latest 10 day(s).
| Time | Temp. | Humidity | Pressure | Rain* | Wind** | Luminosity | Snow |
|---|---|---|---|---|---|---|---|
| 1778029700 | 6.67° C | 80% | 1009.6 hPa | - | - | - | - |
| 1778029099 | 7.22° C | 78% | 1009.5 hPa | - | - | - | - |
| 1778028498 | 6.11° C | 80% | 1009.7 hPa | - | - | - | - |
| 1778027897 | 6.67° C | 80% | 1009.7 hPa | - | - | - | - |
| 1778027297 | 7.22° C | 80% | 1009.7 hPa | - | - | - | - |
| 1778026695 | 7.22° C | 80% | 1009.9 hPa | - | - | - | - |
| 1778026095 | 8.33° C | 83% | 1009.8 hPa | - | - | - | - |
| 1778025021 | 7.78° C | 78% | 1010 hPa | - | - | - | - |
| 1778024421 | 7.22° C | 79% | 1010 hPa | - | - | - | - |
| 1778023819 | 7.22° C | 78% | 1010 hPa | - | - | - | - |
| 1778023219 | 7.78° C | 78% | 1010 hPa | - | - | - | - |
| 1778022618 | 7.78° C | 78% | 1010 hPa | - | - | - | - |
| 1778022018 | 7.78° C | 78% | 1010 hPa | - | - | - | - |
| 1778021416 | 7.78° C | 79% | 1010.1 hPa | - | - | - | - |
| 1778020815 | 7.78° C | 77% | 1010.1 hPa | - | - | - | - |
| 1778020215 | 7.22° C | 79% | 1010.1 hPa | - | - | - | - |
| 1778019614 | 7.22° C | 78% | 1010.2 hPa | - | - | - | - |
| 1778019013 | 7.22° C | 79% | 1010.2 hPa | - | - | - | - |
| 1778018412 | 7.78° C | 78% | 1010.2 hPa | - | - | - | - |
| 1778017811 | 7.22° C | 79% | 1010.3 hPa | - | - | - | - |
| 1778017211 | 7.78° C | 78% | 1010.2 hPa | - | - | - | - |
| 1778016609 | 7.78° C | 79% | 1010.4 hPa | - | - | - | - |
| 1778016008 | 7.78° C | 78% | 1010.3 hPa | - | - | - | - |
| 1778015407 | 7.78° C | 79% | 1010.3 hPa | - | - | - | - |
| 1778014807 | 7.78° C | 79% | 1010.2 hPa | - | - | - | - |
* Rain since midnight (hover to see other rain measurements)
** Current wind speed in m/s (hover to see current wind gust speed)